Terminal Aerodrome Forecast
Issued by NWS Chicago, IL

Home | Current Version | Previous Version | Text Only | Print | Product List | Glossary On
Versions: 1 2 3 4 5 6 7 8 9 10 11 12 13 14 15 16 17 18 19 20 21 22 23 24 25 26 27
000
FTUS43 KLOT 221745
TAFRFD
TAF
KRFD 221745Z 2218/2318 06010KT P6SM FEW050 BKN120 OVC200
     FM222000 09011KT P6SM VCSH SCT015 BKN025
     FM230300 13008KT 5SM -DZ SCT004 OVC008
      TEMPO 2307/2310 3SM -RA BKN003 OVC007
     FM231200 20007KT 5SM BR SCT004 OVC008
     FM231700 26009KT P6SM BKN025=

USA.gov is the U.S. government's official web portal to all federal, state and local government web resources and services.